sensor_id;sensor_type;location;lat;lon;timestamp;temperature;humidity
939;DHT22;456;53.584;9.968;2023-10-31T00:00:23;17.50;43.50
939;DHT22;456;53.584;9.968;2023-10-31T00:02:49;17.60;43.70
939;DHT22;456;53.584;9.968;2023-10-31T00:05:14;17.50;43.60
939;DHT22;456;53.584;9.968;2023-10-31T00:07:40;17.50;43.60
939;DHT22;456;53.584;9.968;2023-10-31T00:10:06;17.50;43.60
939;DHT22;456;53.584;9.968;2023-10-31T00:12:32;17.50;43.50
939;DHT22;456;53.584;9.968;2023-10-31T00:14:58;17.60;43.70
939;DHT22;456;53.584;9.968;2023-10-31T00:17:23;17.50;43.60
939;DHT22;456;53.584;9.968;2023-10-31T00:19:49;17.50;43.60
939;DHT22;456;53.584;9.968;2023-10-31T00:22:14;17.50;43.60
939;DHT22;456;53.584;9.968;2023-10-31T00:24:40;17.60;43.70
939;DHT22;456;53.584;9.968;2023-10-31T00:27:06;17.50;43.60
939;DHT22;456;53.584;9.968;2023-10-31T00:29:31;17.50;43.70
939;DHT22;456;53.584;9.968;2023-10-31T00:31:57;17.50;43.70
939;DHT22;456;53.584;9.968;2023-10-31T00:34:22;17.50;43.70
939;DHT22;456;53.584;9.968;2023-10-31T00:36:48;17.50;43.70
939;DHT22;456;53.584;9.968;2023-10-31T00:39:13;17.50;43.70
939;DHT22;456;53.584;9.968;2023-10-31T00:41:40;17.50;43.70
939;DHT22;456;53.584;9.968;2023-10-31T00:44:09;17.50;43.70
939;DHT22;456;53.584;9.968;2023-10-31T00:46:35;17.50;43.70
939;DHT22;456;53.584;9.968;2023-10-31T00:49:01;17.50;43.70
939;DHT22;456;53.584;9.968;2023-10-31T00:51:26;17.50;43.80
939;DHT22;456;53.584;9.968;2023-10-31T00:53:52;17.50;43.70
939;DHT22;456;53.584;9.968;2023-10-31T00:56:17;17.50;43.70
939;DHT22;456;53.584;9.968;2023-10-31T00:58:43;17.50;43.80
939;DHT22;456;53.584;9.968;2023-10-31T01:01:08;17.50;44.50
939;DHT22;456;53.584;9.968;2023-10-31T01:03:34;17.50;43.80
939;DHT22;456;53.584;9.968;2023-10-31T01:06:00;17.50;43.80
939;DHT22;456;53.584;9.968;2023-10-31T01:08:25;17.50;43.80
939;DHT22;456;53.584;9.968;2023-10-31T01:10:51;17.50;43.80
939;DHT22;456;53.584;9.968;2023-10-31T01:13:16;17.50;43.80
939;DHT22;456;53.584;9.968;2023-10-31T01:15:42;17.50;43.80
939;DHT22;456;53.584;9.968;2023-10-31T01:18:07;17.50;43.90
939;DHT22;456;53.584;9.968;2023-10-31T01:20:33;17.50;43.90
939;DHT22;456;53.584;9.968;2023-10-31T01:22:59;17.50;43.80
939;DHT22;456;53.584;9.968;2023-10-31T01:25:24;17.50;43.90
939;DHT22;456;53.584;9.968;2023-10-31T01:27:50;17.50;43.90
939;DHT22;456;53.584;9.968;2023-10-31T01:30:16;17.50;43.90
939;DHT22;456;53.584;9.968;2023-10-31T01:32:41;17.50;43.90
939;DHT22;456;53.584;9.968;2023-10-31T01:35:07;17.50;43.90
939;DHT22;456;53.584;9.968;2023-10-31T01:37:33;17.50;43.90
939;DHT22;456;53.584;9.968;2023-10-31T01:39:58;17.50;44.00
939;DHT22;456;53.584;9.968;2023-10-31T01:42:24;17.50;44.00
939;DHT22;456;53.584;9.968;2023-10-31T01:44:49;17.50;44.00
939;DHT22;456;53.584;9.968;2023-10-31T01:47:15;17.50;44.00
939;DHT22;456;53.584;9.968;2023-10-31T01:49:41;17.50;44.00
939;DHT22;456;53.584;9.968;2023-10-31T01:52:06;17.50;44.00
939;DHT22;456;53.584;9.968;2023-10-31T01:54:35;17.50;44.00
939;DHT22;456;53.584;9.968;2023-10-31T01:57:02;17.50;44.00
939;DHT22;456;53.584;9.968;2023-10-31T01:59:28;17.50;44.00
939;DHT22;456;53.584;9.968;2023-10-31T02:01:57;17.50;44.00
939;DHT22;456;53.584;9.968;2023-10-31T02:04:24;17.50;44.10
939;DHT22;456;53.584;9.968;2023-10-31T02:06:49;17.50;44.10
939;DHT22;456;53.584;9.968;2023-10-31T02:09:15;17.50;44.10
939;DHT22;456;53.584;9.968;2023-10-31T02:11:41;17.50;44.10
939;DHT22;456;53.584;9.968;2023-10-31T02:14:07;17.50;44.10
939;DHT22;456;53.584;9.968;2023-10-31T02:16:32;17.50;44.10
939;DHT22;456;53.584;9.968;2023-10-31T02:18:58;17.50;44.10
939;DHT22;456;53.584;9.968;2023-10-31T02:21:25;17.50;44.10
939;DHT22;456;53.584;9.968;2023-10-31T02:24:01;17.50;44.20
939;DHT22;456;53.584;9.968;2023-10-31T02:26:31;17.50;44.20
939;DHT22;456;53.584;9.968;2023-10-31T02:28:56;17.50;44.30
939;DHT22;456;53.584;9.968;2023-10-31T02:31:22;17.50;44.20
939;DHT22;456;53.584;9.968;2023-10-31T02:33:48;17.50;44.20
939;DHT22;456;53.584;9.968;2023-10-31T02:36:13;17.50;44.20
939;DHT22;456;53.584;9.968;2023-10-31T02:38:39;17.50;44.20
939;DHT22;456;53.584;9.968;2023-10-31T02:41:05;17.50;44.20
939;DHT22;456;53.584;9.968;2023-10-31T02:43:30;17.50;44.30
939;DHT22;456;53.584;9.968;2023-10-31T02:45:56;17.50;44.30
939;DHT22;456;53.584;9.968;2023-10-31T02:48:22;17.50;44.30
939;DHT22;456;53.584;9.968;2023-10-31T02:50:49;17.50;44.30
939;DHT22;456;53.584;9.968;2023-10-31T02:53:14;17.50;44.30
939;DHT22;456;53.584;9.968;2023-10-31T02:55:40;17.50;44.30
939;DHT22;456;53.584;9.968;2023-10-31T02:58:05;17.50;44.40
939;DHT22;456;53.584;9.968;2023-10-31T03:00:31;17.50;44.40
939;DHT22;456;53.584;9.968;2023-10-31T03:02:56;17.50;44.40
939;DHT22;456;53.584;9.968;2023-10-31T03:05:22;17.50;44.40
939;DHT22;456;53.584;9.968;2023-10-31T03:07:47;17.50;44.40
939;DHT22;456;53.584;9.968;2023-10-31T03:10:13;17.50;44.40
939;DHT22;456;53.584;9.968;2023-10-31T03:12:39;17.50;44.40
939;DHT22;456;53.584;9.968;2023-10-31T03:15:04;17.50;44.40
939;DHT22;456;53.584;9.968;2023-10-31T03:17:30;17.50;44.50
939;DHT22;456;53.584;9.968;2023-10-31T03:19:56;17.50;44.50
939;DHT22;456;53.584;9.968;2023-10-31T03:22:21;17.50;44.50
939;DHT22;456;53.584;9.968;2023-10-31T03:24:47;17.50;44.50
939;DHT22;456;53.584;9.968;2023-10-31T03:27:12;17.50;44.50
939;DHT22;456;53.584;9.968;2023-10-31T03:29:38;17.50;44.60
939;DHT22;456;53.584;9.968;2023-10-31T03:32:04;17.50;44.60
939;DHT22;456;53.584;9.968;2023-10-31T03:34:30;17.50;44.80
939;DHT22;456;53.584;9.968;2023-10-31T03:36:56;17.50;44.60
939;DHT22;456;53.584;9.968;2023-10-31T03:39:21;17.50;44.70
939;DHT22;456;53.584;9.968;2023-10-31T03:41:47;17.50;44.70
939;DHT22;456;53.584;9.968;2023-10-31T03:44:12;17.50;44.60
939;DHT22;456;53.584;9.968;2023-10-31T03:46:38;17.50;44.70
939;DHT22;456;53.584;9.968;2023-10-31T03:49:04;17.50;44.70
939;DHT22;456;53.584;9.968;2023-10-31T03:51:33;17.50;44.70
939;DHT22;456;53.584;9.968;2023-10-31T03:53:58;17.50;44.70
939;DHT22;456;53.584;9.968;2023-10-31T03:56:24;17.50;44.70
939;DHT22;456;53.584;9.968;2023-10-31T03:58:49;17.50;44.70
939;DHT22;456;53.584;9.968;2023-10-31T04:01:15;17.50;44.80
939;DHT22;456;53.584;9.968;2023-10-31T04:03:40;17.50;44.70
939;DHT22;456;53.584;9.968;2023-10-31T04:06:07;17.50;44.80
939;DHT22;456;53.584;9.968;2023-10-31T04:08:33;17.50;44.80
939;DHT22;456;53.584;9.968;2023-10-31T04:10:58;17.50;45.50
939;DHT22;456;53.584;9.968;2023-10-31T04:13:24;17.50;44.80
939;DHT22;456;53.584;9.968;2023-10-31T04:15:49;17.50;44.90
939;DHT22;456;53.584;9.968;2023-10-31T04:18:15;17.50;45.00
939;DHT22;456;53.584;9.968;2023-10-31T04:20:41;17.50;44.90
939;DHT22;456;53.584;9.968;2023-10-31T04:23:07;17.50;44.90
939;DHT22;456;53.584;9.968;2023-10-31T04:25:33;17.50;44.90
939;DHT22;456;53.584;9.968;2023-10-31T04:27:59;17.50;44.90
939;DHT22;456;53.584;9.968;2023-10-31T04:30:24;17.50;45.00
939;DHT22;456;53.584;9.968;2023-10-31T04:32:50;17.50;44.90
939;DHT22;456;53.584;9.968;2023-10-31T04:35:16;17.50;45.00
939;DHT22;456;53.584;9.968;2023-10-31T04:37:41;17.50;44.90
939;DHT22;456;53.584;9.968;2023-10-31T04:40:07;17.50;45.00
939;DHT22;456;53.584;9.968;2023-10-31T04:42:33;17.50;45.10
939;DHT22;456;53.584;9.968;2023-10-31T04:45:01;17.50;45.00
939;DHT22;456;53.584;9.968;2023-10-31T04:47:28;17.50;45.00
939;DHT22;456;53.584;9.968;2023-10-31T04:49:53;17.40;45.00
939;DHT22;456;53.584;9.968;2023-10-31T04:52:19;17.50;45.10
939;DHT22;456;53.584;9.968;2023-10-31T04:54:45;17.50;45.10
939;DHT22;456;53.584;9.968;2023-10-31T04:57:10;17.50;45.10
939;DHT22;456;53.584;9.968;2023-10-31T04:59:36;17.50;45.00
939;DHT22;456;53.584;9.968;2023-10-31T05:02:03;17.50;45.10
939;DHT22;456;53.584;9.968;2023-10-31T05:04:28;17.50;45.10
939;DHT22;456;53.584;9.968;2023-10-31T05:06:54;17.50;45.10
939;DHT22;456;53.584;9.968;2023-10-31T05:09:20;17.50;45.10
939;DHT22;456;53.584;9.968;2023-10-31T05:11:45;17.40;45.10
939;DHT22;456;53.584;9.968;2023-10-31T05:14:11;17.50;45.20
939;DHT22;456;53.584;9.968;2023-10-31T05:16:43;17.50;45.30
939;DHT22;456;53.584;9.968;2023-10-31T05:19:09;17.40;45.10
939;DHT22;456;53.584;9.968;2023-10-31T05:21:35;17.40;45.20
939;DHT22;456;53.584;9.968;2023-10-31T05:24:01;17.50;46.00
939;DHT22;456;53.584;9.968;2023-10-31T05:26:27;17.40;45.20
939;DHT22;456;53.584;9.968;2023-10-31T05:28:55;17.50;45.30
939;DHT22;456;53.584;9.968;2023-10-31T05:31:20;17.50;45.30
939;DHT22;456;53.584;9.968;2023-10-31T05:33:46;17.50;45.40
939;DHT22;456;53.584;9.968;2023-10-31T05:36:21;17.50;45.30
939;DHT22;456;53.584;9.968;2023-10-31T05:38:48;17.50;45.30
939;DHT22;456;53.584;9.968;2023-10-31T05:41:14;17.40;45.20
939;DHT22;456;53.584;9.968;2023-10-31T05:43:40;17.50;45.40
939;DHT22;456;53.584;9.968;2023-10-31T05:46:06;17.50;45.40
939;DHT22;456;53.584;9.968;2023-10-31T05:48:37;17.40;45.20
939;DHT22;456;53.584;9.968;2023-10-31T05:51:03;17.40;45.20
939;DHT22;456;53.584;9.968;2023-10-31T05:53:28;17.40;45.20
939;DHT22;456;53.584;9.968;2023-10-31T05:55:54;17.40;45.20
939;DHT22;456;53.584;9.968;2023-10-31T05:58:19;17.50;45.30
939;DHT22;456;53.584;9.968;2023-10-31T06:00:45;17.40;45.20
939;DHT22;456;53.584;9.968;2023-10-31T06:03:10;17.40;45.20
939;DHT22;456;53.584;9.968;2023-10-31T06:05:36;17.40;45.20
939;DHT22;456;53.584;9.968;2023-10-31T06:08:01;17.40;45.20
939;DHT22;456;53.584;9.968;2023-10-31T06:10:27;17.40;45.20
939;DHT22;456;53.584;9.968;2023-10-31T06:12:53;17.40;45.20
939;DHT22;456;53.584;9.968;2023-10-31T06:15:18;17.40;45.20
939;DHT22;456;53.584;9.968;2023-10-31T06:17:44;17.40;45.30
939;DHT22;456;53.584;9.968;2023-10-31T06:20:10;17.40;45.20
939;DHT22;456;53.584;9.968;2023-10-31T06:22:35;17.40;45.20
939;DHT22;456;53.584;9.968;2023-10-31T06:25:01;17.40;45.20
939;DHT22;456;53.584;9.968;2023-10-31T06:27:27;17.40;45.20
939;DHT22;456;53.584;9.968;2023-10-31T06:29:52;17.40;45.20
939;DHT22;456;53.584;9.968;2023-10-31T06:32:18;17.40;45.20
939;DHT22;456;53.584;9.968;2023-10-31T06:34:44;17.40;45.20
939;DHT22;456;53.584;9.968;2023-10-31T06:37:09;17.40;45.20
939;DHT22;456;53.584;9.968;2023-10-31T06:39:35;17.50;45.40
939;DHT22;456;53.584;9.968;2023-10-31T06:42:00;17.50;45.30
939;DHT22;456;53.584;9.968;2023-10-31T06:44:26;17.50;45.30
939;DHT22;456;53.584;9.968;2023-10-31T06:46:52;17.40;45.30
939;DHT22;456;53.584;9.968;2023-10-31T06:49:17;17.40;45.20
939;DHT22;456;53.584;9.968;2023-10-31T06:51:44;17.40;45.20
939;DHT22;456;53.584;9.968;2023-10-31T06:54:10;17.50;45.30
939;DHT22;456;53.584;9.968;2023-10-31T06:56:35;17.40;45.20
939;DHT22;456;53.584;9.968;2023-10-31T06:59:01;17.40;45.20
939;DHT22;456;53.584;9.968;2023-10-31T07:01:27;17.40;45.20
939;DHT22;456;53.584;9.968;2023-10-31T07:03:52;17.40;45.20
939;DHT22;456;53.584;9.968;2023-10-31T07:06:18;17.40;45.20
939;DHT22;456;53.584;9.968;2023-10-31T07:08:46;17.40;45.20
939;DHT22;456;53.584;9.968;2023-10-31T07:11:12;17.40;45.20
939;DHT22;456;53.584;9.968;2023-10-31T07:13:37;17.40;45.20
939;DHT22;456;53.584;9.968;2023-10-31T07:16:03;17.40;45.20
939;DHT22;456;53.584;9.968;2023-10-31T07:18:29;17.40;45.20
939;DHT22;456;53.584;9.968;2023-10-31T07:20:55;17.40;45.20
939;DHT22;456;53.584;9.968;2023-10-31T07:23:20;17.40;45.20
939;DHT22;456;53.584;9.968;2023-10-31T07:25:46;17.40;45.30
939;DHT22;456;53.584;9.968;2023-10-31T07:28:11;17.40;45.20
939;DHT22;456;53.584;9.968;2023-10-31T07:30:37;17.40;45.20
939;DHT22;456;53.584;9.968;2023-10-31T07:33:02;17.40;45.30
939;DHT22;456;53.584;9.968;2023-10-31T07:35:28;17.40;45.20
939;DHT22;456;53.584;9.968;2023-10-31T07:37:54;17.40;45.20
939;DHT22;456;53.584;9.968;2023-10-31T07:40:19;17.40;45.20
939;DHT22;456;53.584;9.968;2023-10-31T07:42:45;17.40;45.20
939;DHT22;456;53.584;9.968;2023-10-31T07:45:10;17.40;45.20
939;DHT22;456;53.584;9.968;2023-10-31T07:47:36;17.40;45.10
939;DHT22;456;53.584;9.968;2023-10-31T07:50:02;17.40;45.00
939;DHT22;456;53.584;9.968;2023-10-31T07:52:28;17.40;45.00
939;DHT22;456;53.584;9.968;2023-10-31T07:54:53;17.40;44.90
939;DHT22;456;53.584;9.968;2023-10-31T07:57:19;17.40;44.90
939;DHT22;456;53.584;9.968;2023-10-31T07:59:45;17.40;44.80
939;DHT22;456;53.584;9.968;2023-10-31T08:02:10;17.40;44.80
939;DHT22;456;53.584;9.968;2023-10-31T08:04:36;17.40;44.80
939;DHT22;456;53.584;9.968;2023-10-31T08:07:02;17.40;44.80
939;DHT22;456;53.584;9.968;2023-10-31T08:09:27;17.40;44.70
939;DHT22;456;53.584;9.968;2023-10-31T08:11:53;17.40;44.70
939;DHT22;456;53.584;9.968;2023-10-31T08:14:18;17.40;44.70
939;DHT22;456;53.584;9.968;2023-10-31T08:16:44;17.40;44.70
939;DHT22;456;53.584;9.968;2023-10-31T08:19:10;17.40;44.60
939;DHT22;456;53.584;9.968;2023-10-31T08:21:35;17.40;44.50
939;DHT22;456;53.584;9.968;2023-10-31T08:24:04;17.40;44.50
939;DHT22;456;53.584;9.968;2023-10-31T08:26:33;17.40;44.50
939;DHT22;456;53.584;9.968;2023-10-31T08:28:59;17.30;44.40
939;DHT22;456;53.584;9.968;2023-10-31T08:31:25;17.30;44.40
939;DHT22;456;53.584;9.968;2023-10-31T08:33:50;17.30;44.30
939;DHT22;456;53.584;9.968;2023-10-31T08:36:16;17.30;44.30
939;DHT22;456;53.584;9.968;2023-10-31T08:38:42;17.30;44.20
939;DHT22;456;53.584;9.968;2023-10-31T08:41:08;17.40;44.30
939;DHT22;456;53.584;9.968;2023-10-31T08:43:34;17.30;44.20
939;DHT22;456;53.584;9.968;2023-10-31T08:45:59;17.40;44.30
939;DHT22;456;53.584;9.968;2023-10-31T08:48:26;17.30;44.20
939;DHT22;456;53.584;9.968;2023-10-31T08:50:52;17.40;44.20
939;DHT22;456;53.584;9.968;2023-10-31T08:53:17;17.30;44.10
939;DHT22;456;53.584;9.968;2023-10-31T08:55:44;17.30;44.10
939;DHT22;456;53.584;9.968;2023-10-31T08:58:14;17.30;44.10
939;DHT22;456;53.584;9.968;2023-10-31T09:00:40;17.30;44.20
939;DHT22;456;53.584;9.968;2023-10-31T09:03:08;17.30;44.80
939;DHT22;456;53.584;9.968;2023-10-31T09:05:34;17.30;44.10
939;DHT22;456;53.584;9.968;2023-10-31T09:08:00;17.30;44.00
939;DHT22;456;53.584;9.968;2023-10-31T09:10:25;17.30;44.10
939;DHT22;456;53.584;9.968;2023-10-31T09:12:51;17.30;44.00
939;DHT22;456;53.584;9.968;2023-10-31T09:15:16;17.40;44.10
939;DHT22;456;53.584;9.968;2023-10-31T09:17:42;17.40;44.10
939;DHT22;456;53.584;9.968;2023-10-31T09:20:08;17.40;44.10
939;DHT22;456;53.584;9.968;2023-10-31T09:22:34;17.30;44.00
939;DHT22;456;53.584;9.968;2023-10-31T09:25:00;17.30;44.00
939;DHT22;456;53.584;9.968;2023-10-31T09:27:25;17.40;44.10
939;DHT22;456;53.584;9.968;2023-10-31T09:29:51;17.40;44.10
939;DHT22;456;53.584;9.968;2023-10-31T09:32:18;17.40;44.00
939;DHT22;456;53.584;9.968;2023-10-31T09:34:44;17.40;44.00
939;DHT22;456;53.584;9.968;2023-10-31T09:37:09;17.40;44.00
939;DHT22;456;53.584;9.968;2023-10-31T09:39:35;17.40;44.00
939;DHT22;456;53.584;9.968;2023-10-31T09:42:00;17.40;44.00
939;DHT22;456;53.584;9.968;2023-10-31T09:44:26;17.40;44.10
939;DHT22;456;53.584;9.968;2023-10-31T09:46:52;17.40;44.10
939;DHT22;456;53.584;9.968;2023-10-31T09:49:19;17.40;44.10
939;DHT22;456;53.584;9.968;2023-10-31T09:51:47;17.40;44.10
939;DHT22;456;53.584;9.968;2023-10-31T09:54:16;17.40;44.20
939;DHT22;456;53.584;9.968;2023-10-31T09:56:42;17.40;44.10
939;DHT22;456;53.584;9.968;2023-10-31T09:59:09;17.40;44.10
939;DHT22;456;53.584;9.968;2023-10-31T10:01:35;17.40;44.10
939;DHT22;456;53.584;9.968;2023-10-31T10:04:00;17.40;44.10
939;DHT22;456;53.584;9.968;2023-10-31T10:06:26;17.40;44.10
939;DHT22;456;53.584;9.968;2023-10-31T10:08:52;17.40;44.10
939;DHT22;456;53.584;9.968;2023-10-31T10:11:18;17.40;44.10
939;DHT22;456;53.584;9.968;2023-10-31T10:13:44;17.30;44.10
939;DHT22;456;53.584;9.968;2023-10-31T10:16:10;17.40;44.10
939;DHT22;456;53.584;9.968;2023-10-31T10:18:36;17.40;44.20
939;DHT22;456;53.584;9.968;2023-10-31T10:21:06;17.40;44.00
939;DHT22;456;53.584;9.968;2023-10-31T10:23:33;17.40;44.00
939;DHT22;456;53.584;9.968;2023-10-31T10:26:00;17.40;43.90
939;DHT22;456;53.584;9.968;2023-10-31T10:28:26;17.40;44.00
939;DHT22;456;53.584;9.968;2023-10-31T10:30:53;17.40;44.00
939;DHT22;456;53.584;9.968;2023-10-31T12:43:35;17.30;44.50
939;DHT22;456;53.584;9.968;2023-10-31T12:46:23;17.30;44.80
939;DHT22;456;53.584;9.968;2023-10-31T12:48:49;17.20;44.70
939;DHT22;456;53.584;9.968;2023-10-31T12:51:15;17.20;44.90
939;DHT22;456;53.584;9.968;2023-10-31T12:53:40;17.20;45.00
939;DHT22;456;53.584;9.968;2023-10-31T12:56:06;17.20;44.90
939;DHT22;456;53.584;9.968;2023-10-31T12:58:32;17.20;45.00
939;DHT22;456;53.584;9.968;2023-10-31T13:00:57;17.20;45.00
939;DHT22;456;53.584;9.968;2023-10-31T13:03:24;17.20;45.00
939;DHT22;456;53.584;9.968;2023-10-31T13:05:50;17.20;45.10
939;DHT22;456;53.584;9.968;2023-10-31T13:08:16;17.30;45.10
939;DHT22;456;53.584;9.968;2023-10-31T13:10:42;17.30;45.00
939;DHT22;456;53.584;9.968;2023-10-31T13:13:08;17.30;44.60
939;DHT22;456;53.584;9.968;2023-10-31T13:15:34;17.40;44.50
939;DHT22;456;53.584;9.968;2023-10-31T13:18:02;17.40;44.30
939;DHT22;456;53.584;9.968;2023-10-31T13:20:28;17.40;44.10
939;DHT22;456;53.584;9.968;2023-10-31T13:22:54;17.40;44.20
939;DHT22;456;53.584;9.968;2023-10-31T13:25:20;17.40;44.20
939;DHT22;456;53.584;9.968;2023-10-31T13:27:45;17.40;44.20
939;DHT22;456;53.584;9.968;2023-10-31T13:30:16;17.40;44.30
939;DHT22;456;53.584;9.968;2023-10-31T13:32:43;17.40;44.50
939;DHT22;456;53.584;9.968;2023-10-31T13:35:09;17.50;45.30
939;DHT22;456;53.584;9.968;2023-10-31T13:37:36;17.50;45.40
939;DHT22;456;53.584;9.968;2023-10-31T13:40:05;17.50;45.60
939;DHT22;456;53.584;9.968;2023-10-31T13:42:34;17.50;46.30
939;DHT22;456;53.584;9.968;2023-10-31T13:44:59;17.60;46.60
939;DHT22;456;53.584;9.968;2023-10-31T13:47:25;17.60;46.90
939;DHT22;456;53.584;9.968;2023-10-31T13:49:50;17.60;47.10
939;DHT22;456;53.584;9.968;2023-10-31T13:52:16;17.60;47.20
939;DHT22;456;53.584;9.968;2023-10-31T13:54:42;17.60;47.40
939;DHT22;456;53.584;9.968;2023-10-31T13:57:08;17.60;48.00
939;DHT22;456;53.584;9.968;2023-10-31T13:59:34;17.70;51.70
939;DHT22;456;53.584;9.968;2023-10-31T14:02:00;17.80;53.20
939;DHT22;456;53.584;9.968;2023-10-31T14:04:25;17.90;54.20
939;DHT22;456;53.584;9.968;2023-10-31T14:06:51;18.00;55.30
939;DHT22;456;53.584;9.968;2023-10-31T14:09:17;18.00;54.60
939;DHT22;456;53.584;9.968;2023-10-31T14:11:42;18.10;54.80
939;DHT22;456;53.584;9.968;2023-10-31T14:14:08;18.10;54.70
939;DHT22;456;53.584;9.968;2023-10-31T14:16:39;18.10;54.70
939;DHT22;456;53.584;9.968;2023-10-31T14:19:05;18.10;53.90
939;DHT22;456;53.584;9.968;2023-10-31T14:21:31;18.00;51.80
939;DHT22;456;53.584;9.968;2023-10-31T14:23:57;17.90;52.00
939;DHT22;456;53.584;9.968;2023-10-31T14:26:23;17.90;51.80
939;DHT22;456;53.584;9.968;2023-10-31T14:28:49;17.90;52.10
939;DHT22;456;53.584;9.968;2023-10-31T14:31:15;17.90;52.20
939;DHT22;456;53.584;9.968;2023-10-31T14:33:42;17.90;52.10
939;DHT22;456;53.584;9.968;2023-10-31T14:36:08;17.90;52.10
939;DHT22;456;53.584;9.968;2023-10-31T14:38:36;18.00;52.20
939;DHT22;456;53.584;9.968;2023-10-31T14:41:01;18.00;52.10
939;DHT22;456;53.584;9.968;2023-10-31T14:43:27;18.00;51.90
939;DHT22;456;53.584;9.968;2023-10-31T14:45:53;18.00;51.70
939;DHT22;456;53.584;9.968;2023-10-31T14:48:20;18.10;51.70
939;DHT22;456;53.584;9.968;2023-10-31T14:50:46;18.10;52.30
939;DHT22;456;53.584;9.968;2023-10-31T14:53:12;18.10;51.40
939;DHT22;456;53.584;9.968;2023-10-31T14:55:38;18.10;51.20
939;DHT22;456;53.584;9.968;2023-10-31T14:58:04;18.10;50.80
939;DHT22;456;53.584;9.968;2023-10-31T15:00:29;18.10;50.80
939;DHT22;456;53.584;9.968;2023-10-31T15:02:56;18.10;50.80
939;DHT22;456;53.584;9.968;2023-10-31T15:05:21;18.10;50.80
939;DHT22;456;53.584;9.968;2023-10-31T15:07:48;18.10;50.50
939;DHT22;456;53.584;9.968;2023-10-31T15:10:14;18.10;50.30
939;DHT22;456;53.584;9.968;2023-10-31T15:12:39;18.10;50.30
939;DHT22;456;53.584;9.968;2023-10-31T15:15:07;18.00;50.20
939;DHT22;456;53.584;9.968;2023-10-31T15:17:33;18.00;50.20
939;DHT22;456;53.584;9.968;2023-10-31T15:19:58;18.00;49.80
939;DHT22;456;53.584;9.968;2023-10-31T15:22:24;18.00;50.20
939;DHT22;456;53.584;9.968;2023-10-31T15:24:49;18.00;50.20
939;DHT22;456;53.584;9.968;2023-10-31T15:27:15;18.00;50.20
939;DHT22;456;53.584;9.968;2023-10-31T15:29:43;18.00;50.20
939;DHT22;456;53.584;9.968;2023-10-31T15:32:09;18.10;50.30
939;DHT22;456;53.584;9.968;2023-10-31T15:34:34;18.00;50.20
939;DHT22;456;53.584;9.968;2023-10-31T15:37:04;18.10;50.30
939;DHT22;456;53.584;9.968;2023-10-31T15:39:29;18.00;49.80
939;DHT22;456;53.584;9.968;2023-10-31T15:41:55;18.00;50.00
939;DHT22;456;53.584;9.968;2023-10-31T15:44:20;18.00;50.00
939;DHT22;456;53.584;9.968;2023-10-31T15:46:46;18.00;49.90
939;DHT22;456;53.584;9.968;2023-10-31T15:49:12;18.00;49.70
939;DHT22;456;53.584;9.968;2023-10-31T15:51:37;18.00;49.60
939;DHT22;456;53.584;9.968;2023-10-31T15:54:03;18.00;49.80
939;DHT22;456;53.584;9.968;2023-10-31T15:56:29;18.00;49.80
939;DHT22;456;53.584;9.968;2023-10-31T15:58:55;18.00;49.70
939;DHT22;456;53.584;9.968;2023-10-31T16:01:20;18.00;49.70
939;DHT22;456;53.584;9.968;2023-10-31T16:03:46;18.00;49.70
939;DHT22;456;53.584;9.968;2023-10-31T16:06:12;18.00;49.60
939;DHT22;456;53.584;9.968;2023-10-31T16:08:37;18.00;49.50
939;DHT22;456;53.584;9.968;2023-10-31T16:11:05;18.00;49.40
939;DHT22;456;53.584;9.968;2023-10-31T16:13:31;18.00;49.30
939;DHT22;456;53.584;9.968;2023-10-31T16:15:56;18.00;49.50
939;DHT22;456;53.584;9.968;2023-10-31T16:18:22;18.00;49.50
939;DHT22;456;53.584;9.968;2023-10-31T16:20:48;18.00;49.50
939;DHT22;456;53.584;9.968;2023-10-31T16:23:15;18.00;49.50
939;DHT22;456;53.584;9.968;2023-10-31T16:25:43;18.00;49.30
939;DHT22;456;53.584;9.968;2023-10-31T16:28:08;18.00;49.30
939;DHT22;456;53.584;9.968;2023-10-31T16:30:34;18.00;49.30
939;DHT22;456;53.584;9.968;2023-10-31T16:33:00;18.10;49.40
939;DHT22;456;53.584;9.968;2023-10-31T16:35:27;18.00;48.30
939;DHT22;456;53.584;9.968;2023-10-31T16:37:54;18.00;49.20
939;DHT22;456;53.584;9.968;2023-10-31T16:40:20;18.10;49.20
939;DHT22;456;53.584;9.968;2023-10-31T16:42:46;18.10;49.10
939;DHT22;456;53.584;9.968;2023-10-31T16:45:12;18.10;49.00
939;DHT22;456;53.584;9.968;2023-10-31T16:47:38;18.10;49.00
939;DHT22;456;53.584;9.968;2023-10-31T16:50:04;18.10;48.90
939;DHT22;456;53.584;9.968;2023-10-31T16:52:30;18.10;48.90
939;DHT22;456;53.584;9.968;2023-10-31T16:54:55;18.20;48.90
939;DHT22;456;53.584;9.968;2023-10-31T16:57:21;18.20;48.80
939;DHT22;456;53.584;9.968;2023-10-31T16:59:46;18.20;48.80
939;DHT22;456;53.584;9.968;2023-10-31T17:02:12;18.20;48.90
939;DHT22;456;53.584;9.968;2023-10-31T17:04:39;18.20;48.70
939;DHT22;456;53.584;9.968;2023-10-31T17:07:04;18.20;48.80
939;DHT22;456;53.584;9.968;2023-10-31T17:09:30;18.20;48.70
939;DHT22;456;53.584;9.968;2023-10-31T17:11:56;18.20;48.60
939;DHT22;456;53.584;9.968;2023-10-31T17:14:21;18.20;48.70
939;DHT22;456;53.584;9.968;2023-10-31T17:16:48;18.20;48.60
939;DHT22;456;53.584;9.968;2023-10-31T17:19:13;18.20;48.60
939;DHT22;456;53.584;9.968;2023-10-31T17:21:39;18.20;48.50
939;DHT22;456;53.584;9.968;2023-10-31T17:24:05;18.20;48.50
939;DHT22;456;53.584;9.968;2023-10-31T17:26:31;18.20;48.50
939;DHT22;456;53.584;9.968;2023-10-31T17:28:56;18.20;48.50
939;DHT22;456;53.584;9.968;2023-10-31T17:31:22;18.20;48.40
939;DHT22;456;53.584;9.968;2023-10-31T17:33:48;18.20;48.40
939;DHT22;456;53.584;9.968;2023-10-31T17:36:15;18.20;48.40
939;DHT22;456;53.584;9.968;2023-10-31T17:38:41;18.20;48.40
939;DHT22;456;53.584;9.968;2023-10-31T17:41:07;18.20;48.30
939;DHT22;456;53.584;9.968;2023-10-31T17:43:33;18.20;48.30
939;DHT22;456;53.584;9.968;2023-10-31T17:45:59;18.20;48.30
939;DHT22;456;53.584;9.968;2023-10-31T17:48:24;18.20;48.10
939;DHT22;456;53.584;9.968;2023-10-31T17:50:50;18.30;48.20
939;DHT22;456;53.584;9.968;2023-10-31T17:53:15;18.30;48.10
939;DHT22;456;53.584;9.968;2023-10-31T17:55:41;18.30;48.10
939;DHT22;456;53.584;9.968;2023-10-31T17:58:07;18.30;48.10
939;DHT22;456;53.584;9.968;2023-10-31T18:00:33;18.30;48.10
939;DHT22;456;53.584;9.968;2023-10-31T18:02:58;18.30;48.00
939;DHT22;456;53.584;9.968;2023-10-31T18:05:26;18.30;48.10
939;DHT22;456;53.584;9.968;2023-10-31T18:07:51;18.30;48.00
939;DHT22;456;53.584;9.968;2023-10-31T18:10:17;18.30;48.00
939;DHT22;456;53.584;9.968;2023-10-31T18:12:42;18.30;48.00
939;DHT22;456;53.584;9.968;2023-10-31T18:15:10;18.20;47.90
939;DHT22;456;53.584;9.968;2023-10-31T18:17:36;18.20;47.80
939;DHT22;456;53.584;9.968;2023-10-31T18:20:02;18.20;47.80
939;DHT22;456;53.584;9.968;2023-10-31T18:22:27;18.20;47.80
939;DHT22;456;53.584;9.968;2023-10-31T18:24:53;18.20;47.80
939;DHT22;456;53.584;9.968;2023-10-31T18:27:19;18.20;47.80
939;DHT22;456;53.584;9.968;2023-10-31T18:29:45;18.20;47.70
939;DHT22;456;53.584;9.968;2023-10-31T18:32:11;18.20;47.70
939;DHT22;456;53.584;9.968;2023-10-31T18:34:36;18.20;47.70